Terminal Aerodrome Forecast
Issued by NWS Wilmington, NC

Home | Current Version | Previous Version | Text Only | Print | Product List | Glossary On
Versions: 1 2 3 4 5 6 7 8 9 10 11 12 13 14 15 16 17 18 19 20 21 22 23 24 25 26
000
FTUS42 KILM 261150 CCA
TAFLBT
TAF COR
KLBT 261150Z 2612/2712 02005KT 2SM BR BKN004 BKN020
     FM261500 36007KT 4SM BR BKN006
     FM261800 35010KT P6SM VCSH BKN012
     FM270000 01009KT P6SM OVC014=

USA.gov is the U.S. government's official web portal to all federal, state and local government web resources and services.